Time;durP1;ratioP1;P1;durP2;ratioP2;P2;SDS_P1;SDS_P2;PMS_P1;PMS_P2;Temp;Humidity;BMP_temperature;BMP_pressure;BME280_temperature;BME280_humidity;BME280_pressure;Samples;Min_cycle;Max_cycle;Signal;HPM_P1;HPM_P2
2022/06/24 00:00:38;;;;;;;8.93;2.58;;;15.20;99.90;;;14.22;100.00;101011.25;4940495;28;20664;-76
2022/06/24 00:03:06;;;;;;;5.13;2.83;;;15.20;99.90;;;14.26;100.00;101015.44;4943835;28;20038;-77
2022/06/24 00:05:34;;;;;;;6.50;3.35;;;15.20;99.90;;;14.28;100.00;101010.91;4954131;28;20512;-76
2022/06/24 00:08:01;;;;;;;7.38;3.17;;;15.20;99.90;;;14.27;100.00;101009.19;4950629;28;20518;-77
2022/06/24 00:10:33;;;;;;;4.72;2.72;;;15.20;99.90;;;14.23;100.00;101012.09;4959809;28;20181;-76
2022/06/24 00:13:00;;;;;;;4.45;2.65;;;15.20;99.90;;;14.16;100.00;101009.78;4941734;28;20041;-77
2022/06/24 00:15:29;;;;;;;3.90;2.88;;;15.20;99.90;;;14.20;100.00;101004.34;4956631;28;20061;-76
2022/06/24 00:17:55;;;;;;;6.82;3.20;;;15.20;99.90;;;14.23;100.00;100996.19;4949738;28;20458;-76
2022/06/24 00:20:22;;;;;;;6.03;3.00;;;15.20;99.90;;;14.20;100.00;100996.41;4949255;28;20030;-76
2022/06/24 00:22:51;;;;;;;6.43;2.80;;;15.20;99.90;;;14.19;100.00;100994.66;4973869;28;20506;-77
2022/06/24 00:25:23;;;;;;;4.15;2.60;;;15.10;99.90;;;14.18;100.00;100992.97;4954382;28;20050;-76
2022/06/24 00:28:02;;;;;;;6.57;3.10;;;15.10;99.90;;;14.19;100.00;100997.31;4987365;28;20072;-76
2022/06/24 00:30:34;;;;;;;9.07;3.03;;;15.10;99.90;;;14.18;100.00;100992.97;4988131;28;20030;-77
2022/06/24 00:33:15;;;;;;;8.57;3.05;;;15.10;99.90;;;14.20;100.00;100988.44;4959660;28;20439;-76
2022/06/24 00:35:50;;;;;;;7.55;3.10;;;15.10;99.90;;;14.15;100.00;100994.88;4954727;28;20057;-77
2022/06/24 00:38:36;;;;;;;6.88;2.80;;;15.10;99.90;;;14.12;100.00;100992.41;4975769;28;20526;-76
2022/06/24 00:41:09;;;;;;;8.32;3.00;;;15.00;99.90;;;14.06;100.00;100990.09;4967910;28;20037;-76
2022/06/24 00:43:38;;;;;;;5.85;2.88;;;15.00;99.90;;;14.07;100.00;100981.19;4956981;28;20053;-76
2022/06/24 00:46:24;;;;;;;5.20;2.95;;;15.00;99.90;;;14.11;100.00;100981.88;4969464;28;20604;-76
2022/06/24 00:48:56;;;;;;;3.53;2.88;;;15.00;99.90;;;14.08;100.00;100982.94;4983112;28;20030;-77
2022/06/24 00:51:30;;;;;;;7.70;3.58;;;15.00;99.90;;;14.07;100.00;100983.84;4947544;28;20043;-75
2022/06/24 00:53:58;;;;;;;4.70;3.05;;;15.00;99.90;;;14.04;100.00;100991.09;4949468;28;20108;-76
2022/06/24 00:56:27;;;;;;;5.50;3.42;;;15.00;99.90;;;14.03;100.00;100987.59;4964015;28;20021;-76
2022/06/24 00:58:59;;;;;;;9.57;3.60;;;15.00;99.90;;;14.03;100.00;100986.75;4951728;28;20474;-76
2022/06/24 01:01:33;;;;;;;4.45;3.53;;;14.90;99.90;;;14.03;100.00;100982.31;4943255;28;20030;-76
2022/06/24 01:04:00;;;;;;;7.47;3.67;;;15.00;99.90;;;14.02;100.00;100985.06;4949594;28;20117;-76
2022/06/24 01:06:28;;;;;;;5.45;3.65;;;14.90;99.90;;;14.03;100.00;100978.81;4967195;28;20026;-76
2022/06/24 01:08:57;;;;;;;7.35;3.60;;;14.90;99.90;;;14.02;100.00;100972.69;4937386;28;20021;-76
2022/06/24 01:11:40;;;;;;;7.13;4.00;;;15.00;99.90;;;14.04;100.00;100973.44;4969413;28;20027;-76
2022/06/24 01:14:06;;;;;;;6.88;3.72;;;15.00;99.90;;;14.05;100.00;100982.22;4979243;28;20044;-76
2022/06/24 01:16:33;;;;;;;7.40;3.70;;;15.00;99.90;;;14.10;100.00;100981.03;4940783;28;20065;-77
2022/06/24 01:19:05;;;;;;;6.32;3.47;;;15.00;99.90;;;14.14;100.00;100973.75;4951025;28;20084;-76
2022/06/24 01:21:48;;;;;;;7.13;3.50;;;15.10;99.90;;;14.16;100.00;100972.72;4950971;28;20018;-77
2022/06/24 01:24:16;;;;;;;10.93;3.63;;;15.10;99.90;;;14.18;100.00;100979.75;4981794;28;20044;-76
2022/06/24 01:26:54;;;;;;;4.32;3.70;;;15.10;99.90;;;14.21;100.00;100976.91;4973620;28;20117;-76
2022/06/24 01:29:21;;;;;;;7.18;3.92;;;15.20;99.90;;;14.21;100.00;100976.91;4923567;28;20490;-78
2022/06/24 01:31:52;;;;;;;6.55;3.30;;;15.20;99.90;;;14.25;100.00;100975.78;4957712;28;20372;-76
2022/06/24 01:34:20;;;;;;;9.82;3.60;;;15.20;99.90;;;14.27;100.00;100971.25;4992686;28;20023;-76
2022/06/24 01:36:47;;;;;;;5.90;3.60;;;15.20;99.90;;;14.27;100.00;100964.16;4954534;28;20465;-76
2022/06/24 01:39:14;;;;;;;7.25;3.67;;;15.20;99.90;;;14.26;100.00;100959.81;4933825;28;20480;-76
2022/06/24 01:41:40;;;;;;;4.85;3.22;;;15.20;99.90;;;14.29;100.00;100961.44;4958538;28;20026;-76
2022/06/24 01:44:10;;;;;;;7.40;3.33;;;15.30;99.90;;;14.33;100.00;100962.94;4968413;28;20395;-75
2022/06/24 01:46:37;;;;;;;5.20;3.50;;;15.20;99.90;;;14.29;100.00;100970.22;4983093;28;20022;-76
2022/06/24 01:49:03;;;;;;;7.13;3.65;;;15.30;99.90;;;14.30;100.00;100955.19;4967842;28;20134;-76
2022/06/24 01:51:29;;;;;;;6.72;3.30;;;15.30;99.90;;;14.32;100.00;100943.56;4950336;28;20042;-76
2022/06/24 01:53:55;;;;;;;9.38;3.40;;;15.30;99.90;;;14.33;100.00;100941.75;4949400;28;20026;-77
2022/06/24 01:56:21;;;;;;;13.88;3.72;;;15.30;99.90;;;14.38;100.00;100942.34;4943261;28;20045;-76
2022/06/24 01:58:47;;;;;;;;;;;15.30;99.90;;;14.32;100.00;100930.31;4977193;28;20125;-76
2022/06/24 02:01:13;;;;;;;7.07;3.10;;;15.30;99.90;;;14.28;100.00;100927.94;4978516;28;19959;-76
2022/06/24 02:03:39;;;;;;;;;;;15.30;99.90;;;14.27;100.00;100923.56;4925479;28;20038;-76
2022/06/24 02:06:09;;;;;;;7.35;3.13;;;15.20;99.90;;;14.27;100.00;100919.13;4975863;28;19953;-76
2022/06/24 02:08:34;;;;;;;7.25;3.47;;;15.30;99.90;;;14.27;100.00;100928.88;4942296;28;20056;-75
2022/06/24 02:13:47;;;;;;;5.93;3.88;;;15.20;99.90;;;14.25;100.00;100921.00;4941308;28;20518;-77
2022/06/24 02:16:14;;;;;;;8.68;4.18;;;15.20;99.90;;;14.28;100.00;100920.00;4955416;28;20037;-76
2022/06/24 02:18:41;;;;;;;7.28;4.05;;;15.20;99.90;;;14.27;100.00;100923.56;4967628;28;20647;-76
2022/06/24 02:21:07;;;;;;;5.47;3.58;;;15.20;99.90;;;14.24;100.00;100921.97;4974823;28;20041;-76
2022/06/24 02:23:33;;;;;;;10.00;3.75;;;15.30;99.90;;;14.27;100.00;100919.13;4958934;28;20106;-76
2022/06/24 02:26:00;;;;;;;12.25;4.10;;;15.30;99.90;;;14.36;100.00;100923.03;4962948;28;20034;-76
2022/06/24 02:28:26;;;;;;;10.38;4.05;;;15.30;99.90;;;14.38;100.00;100917.66;4963844;28;20108;-76
2022/06/24 02:30:55;;;;;;;7.30;4.30;;;15.30;99.90;;;14.40;100.00;100916.59;4951738;28;20149;-76
2022/06/24 02:33:21;;;;;;;10.30;4.43;;;15.30;99.90;;;14.42;100.00;100914.72;4954125;28;20097;-76
2022/06/24 02:35:48;;;;;;;9.05;4.57;;;15.40;99.90;;;14.45;100.00;100911.91;4928704;28;20577;-76
2022/06/24 02:38:14;;;;;;;5.90;4.10;;;15.40;99.90;;;14.48;100.00;100916.16;4984492;28;20415;-76
2022/06/24 02:40:46;;;;;;;9.00;3.80;;;15.40;99.90;;;14.50;100.00;100919.56;4929299;28;20026;-76
2022/06/24 02:43:23;;;;;;;8.00;4.22;;;15.40;99.90;;;14.53;100.00;100917.56;4975566;28;20037;-76
2022/06/24 02:45:58;;;;;;;6.65;4.47;;;15.50;99.90;;;14.57;100.00;100915.63;4981972;28;20018;-77
2022/06/24 02:48:25;;;;;;;8.18;4.05;;;15.50;99.90;;;14.60;100.00;100918.13;4948646;28;20394;-76
2022/06/24 02:50:54;;;;;;;8.20;3.90;;;15.50;99.90;;;14.63;100.00;100911.78;4963179;28;20478;-76
2022/06/24 02:53:21;;;;;;;5.68;4.05;;;15.60;99.90;;;14.69;100.00;100922.84;4964153;28;20177;-77
2022/06/24 02:55:57;;;;;;;9.82;4.03;;;15.60;99.90;;;14.76;100.00;100915.38;4960915;28;20530;-76
2022/06/24 02:58:23;;;;;;;6.10;3.92;;;15.60;99.90;;;14.77;100.00;100914.41;4957991;28;20029;-76
2022/06/24 03:00:49;;;;;;;;;;;15.70;99.90;;;14.79;100.00;100909.88;4939174;28;20635;-76
2022/06/24 03:03:20;;;;;;;11.60;4.22;;;15.70;99.90;;;14.81;100.00;100917.75;4980952;28;19953;-76
2022/06/24 03:05:47;;;;;;;9.48;4.40;;;15.70;99.90;;;14.81;100.00;100909.78;4923465;28;20474;-76
2022/06/24 03:08:15;;;;;;;8.15;4.57;;;15.70;99.90;;;14.86;100.00;100903.28;4983210;28;20038;-76
2022/06/24 03:10:43;;;;;;;7.97;4.18;;;15.70;99.90;;;14.85;100.00;100906.84;4923895;28;20038;-76
2022/06/24 03:13:09;;;;;;;10.65;4.00;;;15.80;99.90;;;14.85;100.00;100898.91;4959108;28;20022;-76
2022/06/24 03:15:37;;;;;;;9.93;3.97;;;15.80;99.90;;;14.90;100.00;100895.97;4973048;28;20035;-76
2022/06/24 03:18:04;;;;;;;10.00;4.10;;;15.80;99.90;;;14.93;100.00;100907.22;4946722;28;20050;-76
2022/06/24 03:20:30;;;;;;;12.88;4.20;;;15.90;99.90;;;15.05;100.00;100899.47;4941833;28;20501;-76
2022/06/24 03:22:56;;;;;;;9.07;4.10;;;15.90;99.90;;;15.09;100.00;100898.31;4981018;28;21221;-76
2022/06/24 03:25:22;;;;;;;10.40;4.50;;;16.00;99.90;;;15.17;100.00;100896.03;4940382;28;20035;-76
2022/06/24 03:27:48;;;;;;;8.07;3.95;;;16.10;99.90;;;15.26;100.00;100897.25;4956730;28;20053;-76
2022/06/24 03:30:15;;;;;;;7.38;4.10;;;16.10;99.90;;;15.32;100.00;100897.72;4959150;28;20100;-76
2022/06/24 03:32:41;;;;;;;8.70;4.10;;;16.20;99.90;;;15.41;100.00;100888.31;4948964;28;20121;-76
2022/06/24 03:35:08;;;;;;;8.65;3.80;;;16.30;99.90;;;15.53;100.00;100887.53;4942307;28;20072;-76
2022/06/24 03:37:34;;;;;;;6.00;3.92;;;16.50;99.90;;;15.70;100.00;100891.75;4962090;28;20017;-76
2022/06/24 03:40:00;;;;;;;13.05;4.22;;;16.70;99.90;;;15.97;100.00;100888.25;4951023;28;20572;-77
2022/06/24 03:42:27;;;;;;;14.32;4.30;;;18.00;99.90;;;17.28;100.00;100897.84;4942828;28;20038;-76
2022/06/24 03:44:58;;;;;;;9.45;3.88;;;19.60;99.90;;;19.05;100.00;100898.72;4942720;28;20554;-76
2022/06/24 03:47:24;;;;;;;11.48;3.53;;;21.20;99.90;;;20.61;97.86;100909.03;4954794;28;20411;-77
2022/06/24 03:49:51;;;;;;;5.22;3.10;;;22.30;99.90;;;21.48;87.18;100915.72;4946843;28;20077;-78
2022/06/24 03:52:18;;;;;;;7.85;3.22;;;23.30;99.90;;;22.49;80.13;100922.56;4969680;28;20029;-76
2022/06/24 03:54:44;;;;;;;7.68;3.47;;;24.30;99.90;;;23.74;75.22;100918.63;4933287;28;20701;-76
2022/06/24 03:57:09;;;;;;;8.50;3.15;;;24.90;99.90;;;24.05;71.50;100918.28;4957938;28;20045;-76
2022/06/24 03:59:35;;;;;;;8.30;3.08;;;25.50;99.90;;;24.49;69.39;100927.25;4946953;28;20109;-76
2022/06/24 04:02:01;;;;;;;;;;;25.50;99.90;;;25.62;65.95;100939.78;4977923;28;20133;-76
2022/06/24 04:04:27;;;;;;;6.90;3.17;;;26.90;99.90;;;26.20;62.94;100938.88;4986299;28;19918;-76
2022/06/24 04:06:53;;;;;;;5.75;3.08;;;27.20;99.90;;;26.31;61.93;100940.41;4957339;28;20033;-76
2022/06/24 04:09:18;;;;;;;7.75;3.08;;;27.40;99.90;;;26.32;61.24;100942.06;4940011;28;20105;-76
2022/06/24 04:11:44;;;;;;;;;;;27.70;99.90;;;26.31;59.38;100943.94;4923081;28;20058;-76
2022/06/24 04:14:10;;;;;;;4.55;2.60;;;28.00;99.90;;;26.85;59.07;100950.66;4962470;28;20345;-76
2022/06/24 04:16:36;;;;;;;;;;;28.00;99.90;;;27.36;56.88;100968.22;4949771;28;20038;-76
2022/06/24 04:19:01;;;;;;;8.50;3.25;;;28.50;99.90;;;28.10;56.31;100958.84;4983879;28;19926;-76
2022/06/24 04:21:29;;;;;;;9.60;3.15;;;28.60;99.10;;;28.12;55.78;100965.78;4963504;28;23798;-77
2022/06/24 04:23:55;;;;;;;7.65;3.20;;;29.20;98.80;;;29.24;52.99;100971.34;4955922;28;20510;-77
2022/06/24 04:26:21;;;;;;;5.65;3.22;;;29.30;98.10;;;28.96;53.56;100971.16;4973593;28;20037;-78
2022/06/24 04:28:49;;;;;;;7.07;3.30;;;29.30;97.80;;;28.87;53.56;100964.09;4959192;28;20032;-76
2022/06/24 04:31:14;;;;;;;7.43;3.55;;;29.10;97.40;;;28.14;54.37;100971.88;4932404;28;20038;-77
2022/06/24 04:33:41;;;;;;;12.65;3.80;;;29.10;97.60;;;28.58;53.56;100973.88;4951416;28;20026;-76
2022/06/24 04:36:13;;;;;;;6.55;3.55;;;29.20;98.00;;;29.21;51.97;100974.44;4954631;28;20080;-76
2022/06/24 04:38:41;;;;;;;4.97;3.58;;;29.50;97.50;;;29.98;50.20;100986.66;4953217;28;20104;-77
2022/06/24 04:41:14;;;;;;;8.10;3.55;;;29.50;96.40;;;29.48;51.08;100988.31;4945009;28;20042;-77
2022/06/24 04:43:40;;;;;;;8.70;3.42;;;30.10;96.80;;;30.85;47.91;101007.28;4979357;28;20029;-77
2022/06/24 04:46:06;;;;;;;5.90;3.50;;;30.60;96.00;;;30.80;47.24;101001.63;4969955;28;20035;-77
2022/06/24 04:48:33;;;;;;;10.73;3.90;;;30.40;95.10;;;30.72;47.50;101000.94;4968732;28;20133;-76
2022/06/24 04:50:59;;;;;;;11.15;4.30;;;30.80;94.90;;;31.34;46.12;101007.38;4971905;28;20034;-76
2022/06/24 04:53:24;;;;;;;10.90;3.80;;;30.80;94.60;;;31.39;46.05;101013.91;4975142;28;20092;-77
2022/06/24 04:55:50;;;;;;;9.05;3.78;;;31.00;93.80;;;31.76;44.73;101024.56;4926734;28;20053;-76
2022/06/24 04:58:16;;;;;;;9.00;3.55;;;31.30;94.20;;;32.29;43.62;101017.41;4954172;28;20120;-76
2022/06/24 05:00:42;;;;;;;6.97;3.42;;;31.40;93.40;;;32.47;43.01;101024.13;4952574;28;20686;-77
2022/06/24 05:03:08;;;;;;;7.03;3.50;;;31.70;93.00;;;32.83;42.24;101023.72;4965986;28;20033;-77
2022/06/24 05:05:35;;;;;;;9.00;3.50;;;31.90;92.50;;;33.21;41.70;101031.22;4962039;28;20092;-76
2022/06/24 05:08:01;;;;;;;7.78;3.22;;;32.40;92.70;;;33.90;40.06;101039.81;4978195;28;20065;-76
2022/06/24 05:10:26;;;;;;;8.25;3.58;;;32.60;92.10;;;34.07;39.58;101049.16;4987864;28;20046;-77
2022/06/24 05:12:52;;;;;;;6.15;3.40;;;32.40;91.70;;;32.96;41.13;101041.97;4971282;28;20052;-77
2022/06/24 05:15:18;;;;;;;7.68;3.78;;;32.30;92.00;;;33.91;39.77;101049.69;4975781;28;20680;-77
2022/06/24 05:17:46;;;;;;;8.68;3.42;;;32.60;91.00;;;34.10;39.09;101050.59;4989405;28;20087;-77
2022/06/24 05:20:12;;;;;;;6.35;3.05;;;32.60;91.50;;;34.40;39.19;101052.75;4959050;28;20037;-77
2022/06/24 05:22:38;;;;;;;7.88;3.10;;;32.70;90.50;;;33.49;40.20;101050.03;4943311;28;20137;-77
2022/06/24 05:25:07;;;;;;;10.43;3.50;;;32.80;91.30;;;34.88;37.95;101057.66;4957251;28;20042;-77
2022/06/24 05:27:33;;;;;;;7.90;3.15;;;32.70;88.60;;;34.12;38.39;101064.91;4981499;28;20022;-77
2022/06/24 05:29:59;;;;;;;5.55;3.22;;;33.10;88.90;;;34.98;36.51;101070.81;4957242;28;20113;-76
2022/06/24 05:32:25;;;;;;;7.95;3.20;;;33.40;89.50;;;35.75;35.72;101074.03;4947131;28;20030;-77
2022/06/24 05:34:51;;;;;;;6.63;3.35;;;33.90;88.70;;;36.17;34.82;101079.59;4965931;28;20045;-76
2022/06/24 05:37:17;;;;;;;6.18;3.42;;;34.20;86.50;;;36.33;34.78;101083.59;4958705;28;20054;-76
2022/06/24 05:39:42;;;;;;;13.65;3.22;;;34.50;85.50;;;36.66;33.97;101085.84;4967433;28;20052;-77
2022/06/24 05:42:08;;;;;;;5.55;3.10;;;34.80;84.80;;;36.77;33.75;101084.19;4939994;28;20495;-77
2022/06/24 05:44:34;;;;;;;9.43;3.55;;;34.60;83.00;;;35.94;34.84;101081.16;4964605;28;20034;-77
2022/06/24 05:47:00;;;;;;;6.15;3.08;;;34.70;83.50;;;36.47;33.35;101084.22;4968529;28;20105;-76
2022/06/24 05:49:28;;;;;;;10.27;3.00;;;34.40;82.90;;;35.71;34.28;101078.31;4965143;28;20056;-76
2022/06/24 05:51:54;;;;;;;9.00;3.22;;;34.50;84.10;;;36.08;34.43;101076.31;4951181;28;20021;-76
2022/06/24 05:57:04;;;;;;;4.90;2.83;;;35.00;82.60;;;36.41;33.65;101085.16;4945129;28;20037;-76
2022/06/24 05:59:30;;;;;;;6.80;3.30;;;34.50;82.40;;;35.30;35.03;101071.59;4950657;28;20048;-77
2022/06/24 06:01:56;;;;;;;11.65;3.33;;;34.40;83.60;;;35.81;34.59;101069.53;4960421;28;20109;-76
2022/06/24 06:04:22;;;;;;;9.82;2.80;;;34.50;82.30;;;35.68;34.29;101065.06;4946401;28;20038;-77
2022/06/24 06:06:50;;;;;;;6.78;3.22;;;33.80;81.20;;;34.37;36.12;101056.78;4968654;28;20106;-77
2022/06/24 06:09:16;;;;;;;7.88;3.38;;;34.30;81.40;;;34.85;34.52;101067.16;4968128;28;20022;-77
2022/06/24 06:11:41;;;;;;;5.35;2.78;;;34.70;82.50;;;36.22;33.39;101077.00;4965225;28;20048;-77
2022/06/24 06:14:07;;;;;;;13.02;3.17;;;35.10;80.40;;;36.51;32.46;101077.19;4950105;28;20482;-76
2022/06/24 06:16:33;;;;;;;7.95;2.83;;;35.20;79.20;;;36.11;32.51;101088.72;4953117;28;20060;-77
2022/06/24 06:18:58;;;;;;;12.55;3.50;;;35.00;79.90;;;35.80;33.14;101070.59;4974580;28;20117;-76
2022/06/24 06:21:24;;;;;;;7.78;2.40;;;35.20;79.00;;;36.43;32.83;101075.63;4968384;28;20049;-76
2022/06/24 06:23:50;;;;;;;6.10;2.92;;;35.20;78.10;;;35.87;33.11;101063.94;4985908;28;20022;-77
2022/06/24 06:26:16;;;;;;;8.93;2.65;;;34.90;77.50;;;35.38;33.37;101056.75;4957907;28;20029;-76
2022/06/24 06:28:42;;;;;;;8.00;3.05;;;34.60;78.10;;;35.00;33.99;101060.50;4979714;28;20034;-76
2022/06/24 06:31:09;;;;;;;7.63;2.63;;;34.70;77.50;;;35.01;33.54;101060.28;4966055;28;20530;-76
2022/06/24 06:33:35;;;;;;;8.43;2.85;;;35.10;78.00;;;35.90;33.00;101063.50;4926633;28;20022;-77
2022/06/24 06:36:05;;;;;;;6.43;2.97;;;34.90;76.70;;;35.17;33.10;101061.63;4951389;28;20515;-77
2022/06/24 06:38:32;;;;;;;5.07;2.60;;;35.10;76.60;;;35.57;32.71;101063.88;4977522;28;20532;-78
2022/06/24 06:40:58;;;;;;;5.68;2.85;;;35.20;77.00;;;36.01;32.23;101053.66;4962236;28;20412;-78
2022/06/24 06:43:24;;;;;;;5.32;2.53;;;35.50;75.00;;;36.01;31.78;101059.16;4937622;28;20419;-78
2022/06/24 06:45:51;;;;;;;10.00;2.70;;;35.60;76.10;;;36.17;32.11;101056.84;4930418;28;20045;-78
2022/06/24 06:48:16;;;;;;;6.45;2.63;;;35.30;75.60;;;35.57;32.70;101047.47;4959346;28;20490;-77
2022/06/24 06:50:42;;;;;;;8.57;2.10;;;35.60;76.70;;;36.24;31.91;101052.91;4974263;28;20057;-77
2022/06/24 06:53:08;;;;;;;4.68;2.33;;;35.70;75.60;;;35.67;32.41;101047.78;4956651;28;20030;-77
2022/06/24 06:55:34;;;;;;;6.70;2.30;;;35.60;75.10;;;35.32;32.85;101040.19;4966905;28;20026;-78
2022/06/24 06:58:02;;;;;;;4.90;2.47;;;35.20;75.80;;;34.91;32.97;101027.94;4954584;28;20475;-78
2022/06/24 07:00:29;;;;;;;9.68;2.75;;;35.20;75.00;;;34.91;33.28;101022.47;4959311;28;20038;-77
2022/06/24 07:02:55;;;;;;;8.50;2.63;;;34.90;75.20;;;34.54;33.42;101018.81;4956220;28;20038;-76
2022/06/24 07:05:21;;;;;;;4.00;2.55;;;35.10;76.10;;;35.13;33.00;101020.16;4965249;28;20504;-76
2022/06/24 07:07:47;;;;;;;6.68;3.13;;;35.50;76.60;;;35.75;32.49;101019.25;4932466;28;20043;-77
2022/06/24 07:10:13;;;;;;;9.60;2.67;;;35.70;74.20;;;35.79;31.85;101022.34;4965144;28;20097;-76
2022/06/24 07:12:40;;;;;;;7.25;2.30;;;35.70;73.80;;;35.31;32.85;101013.88;4963918;28;20026;-76
2022/06/24 07:15:07;;;;;;;6.15;2.35;;;35.80;74.10;;;35.76;32.30;101001.75;4966040;28;20553;-77
2022/06/24 07:17:33;;;;;;;9.98;2.33;;;35.40;73.30;;;34.36;33.69;101005.91;4965629;28;20038;-77
2022/06/24 07:19:58;;;;;;;14.43;2.80;;;35.10;74.80;;;34.64;33.08;100996.44;4939526;28;20049;-78
2022/06/24 07:22:24;;;;;;;7.28;2.40;;;35.30;74.90;;;35.36;32.29;100996.78;4971399;28;20022;-77
2022/06/24 07:24:50;;;;;;;4.65;2.47;;;35.10;74.80;;;34.67;33.37;100990.53;4943268;28;20042;-77
2022/06/24 07:27:16;;;;;;;15.77;2.60;;;35.20;75.30;;;35.11;32.75;100983.13;4958969;28;20028;-77
2022/06/24 07:29:42;;;;;;;5.45;2.67;;;35.40;75.40;;;35.39;32.44;100996.28;4980524;28;20085;-78
2022/06/24 07:32:10;;;;;;;8.07;2.42;;;35.00;74.00;;;34.59;33.41;100982.59;4964375;28;20038;-77
2022/06/24 07:34:36;;;;;;;5.75;2.40;;;34.90;74.40;;;34.51;33.55;100979.09;4957873;28;20088;-77
2022/06/24 07:37:04;;;;;;;6.88;2.20;;;34.90;75.10;;;34.68;33.40;100973.88;4958792;28;20817;-77
2022/06/24 07:39:30;;;;;;;9.73;2.55;;;34.50;73.40;;;33.88;33.57;100969.00;4978596;28;20592;-77
2022/06/24 07:41:59;;;;;;;7.20;2.45;;;34.20;74.90;;;33.59;33.81;100964.13;4970933;28;20042;-77
2022/06/24 07:44:25;;;;;;;6.85;2.38;;;33.80;74.70;;;33.39;34.50;100953.28;4957435;28;20030;-78
2022/06/24 07:46:51;;;;;;;7.82;3.22;;;33.90;75.30;;;33.70;34.04;100958.81;4952846;28;20103;-78
2022/06/24 07:49:18;;;;;;;7.10;2.28;;;34.00;75.30;;;33.98;33.52;100948.59;4960171;28;20502;-77
2022/06/24 07:51:44;;;;;;;10.10;2.20;;;34.00;75.00;;;33.93;33.92;100943.75;4958793;28;20049;-76
2022/06/24 07:54:10;;;;;;;5.50;2.20;;;34.20;73.60;;;34.20;33.14;100949.06;4940176;28;20088;-78
2022/06/24 07:59:32;;;;;;;8.97;2.20;;;34.30;73.40;;;33.73;33.35;100945.78;4978687;28;20049;-78
2022/06/24 08:01:59;;;;;;;;;;;34.20;74.60;;;33.45;33.60;100949.69;4952746;28;20034;-76
2022/06/24 08:04:25;;;;;;;;;;;33.90;75.10;;;33.46;33.02;100943.19;4951196;28;19920;-78
2022/06/24 08:06:52;;;;;;;;;;;33.80;74.20;;;33.02;33.52;100931.97;4967183;28;19921;-79
2022/06/24 08:09:20;;;;;;;7.97;2.22;;;33.40;72.50;;;32.96;33.66;100927.41;4966808;28;20008;-77
2022/06/24 08:11:47;;;;;;;6.40;1.95;;;33.10;75.00;;;32.79;34.32;100924.31;4983425;28;20149;-77
2022/06/24 08:14:16;;;;;;;11.80;2.47;;;33.00;74.10;;;32.71;34.04;100902.72;4966798;28;20777;-77
2022/06/24 08:16:42;;;;;;;5.60;2.20;;;32.70;74.00;;;32.34;34.50;100915.97;4978812;28;20027;-78
2022/06/24 08:19:09;;;;;;;4.15;1.90;;;32.50;73.90;;;32.03;34.71;100902.94;4962278;28;20041;-77
2022/06/24 08:21:35;;;;;;;6.10;1.60;;;32.30;74.20;;;31.42;35.20;100906.56;4979984;28;20033;-76
2022/06/24 08:24:02;;;;;;;7.25;2.45;;;32.00;74.80;;;31.61;35.16;100888.66;4953980;28;20109;-77
2022/06/24 08:26:28;;;;;;;6.57;1.92;;;31.90;76.00;;;31.53;35.14;100884.22;4966238;28;20042;-78
2022/06/24 08:28:55;;;;;;;11.15;2.28;;;31.80;76.60;;;31.53;35.82;100878.78;4977073;28;20494;-78
2022/06/24 08:31:21;;;;;;;11.30;2.20;;;31.70;76.20;;;31.49;36.08;100869.38;4944123;28;20125;-77
2022/06/24 08:33:47;;;;;;;7.85;2.22;;;31.30;76.10;;;30.66;36.26;100874.81;4953791;28;20022;-77
2022/06/24 08:36:13;;;;;;;3.38;1.48;;;31.10;76.00;;;30.11;36.77;100861.06;4970663;28;20041;-77
2022/06/24 08:38:39;;;;;;;11.75;2.15;;;30.80;75.30;;;30.02;37.15;100854.94;4965637;28;20026;-77
2022/06/24 08:41:05;;;;;;;5.80;2.10;;;30.60;77.20;;;29.81;37.66;100844.09;4955344;28;20122;-76
2022/06/24 08:43:35;;;;;;;6.10;1.90;;;30.30;76.50;;;29.32;37.75;100831.25;4969343;28;20390;-77
2022/06/24 08:46:03;;;;;;;11.73;1.80;;;30.30;76.70;;;29.83;37.25;100828.44;4974056;28;20509;-77
2022/06/24 08:48:33;;;;;;;5.38;1.52;;;30.40;76.60;;;30.03;35.86;100834.88;4961266;28;20109;-77
2022/06/24 08:51:00;;;;;;;8.27;1.83;;;30.50;74.20;;;30.00;35.81;100829.84;4971759;28;20084;-77
2022/06/24 08:53:32;;;;;;;5.63;1.58;;;30.50;74.10;;;30.22;35.49;100838.78;4978871;28;20022;-77
2022/06/24 08:55:58;;;;;;;7.68;1.83;;;30.70;74.00;;;30.32;35.60;100841.16;4978356;28;20042;-77
2022/06/24 08:58:24;;;;;;;5.05;1.95;;;30.90;75.70;;;30.74;35.00;100833.91;4963933;28;20033;-76
2022/06/24 09:00:50;;;;;;;4.72;1.80;;;31.10;72.40;;;30.75;34.19;100838.28;4970736;28;20042;-77
2022/06/24 09:03:16;;;;;;;3.72;1.73;;;31.10;70.80;;;30.58;33.58;100836.94;4965369;28;20108;-76
2022/06/24 09:05:42;;;;;;;3.42;1.50;;;31.10;72.00;;;30.65;34.28;100833.22;4972133;28;20030;-77
2022/06/24 09:08:20;;;;;;;4.32;1.60;;;31.20;72.20;;;30.84;34.31;100839.81;4960239;28;20056;-77
2022/06/24 09:11:06;;;;;;;6.28;2.20;;;31.30;73.20;;;31.16;33.52;100823.81;4963382;28;20114;-77
2022/06/24 09:14:01;;;;;;;8.25;1.58;;;31.50;72.30;;;31.24;33.11;100842.69;4981436;28;20041;-78
2022/06/24 09:16:27;;;;;;;6.93;1.63;;;31.60;70.00;;;31.15;33.37;100833.03;4946839;28;20639;-78
2022/06/24 09:19:04;;;;;;;7.97;1.90;;;31.70;71.20;;;31.32;33.37;100827.22;4963298;28;20042;-78
2022/06/24 09:21:43;;;;;;;6.72;1.67;;;31.70;72.40;;;31.35;33.29;100826.81;4984525;28;20033;-77
2022/06/24 09:24:11;;;;;;;6.53;1.90;;;31.80;70.80;;;31.31;33.40;100829.09;4940325;28;20026;-77
2022/06/24 09:26:47;;;;;;;8.85;1.70;;;31.80;69.30;;;31.51;32.36;100831.88;4978911;28;20022;-78
2022/06/24 09:29:16;;;;;;;4.28;1.52;;;32.00;71.20;;;31.51;32.65;100836.50;4932586;28;20034;-78
2022/06/24 09:31:45;;;;;;;7.55;1.65;;;32.00;70.80;;;31.44;32.87;100833.75;4974017;28;20022;-79
2022/06/24 09:34:14;;;;;;;4.55;1.73;;;31.90;70.90;;;31.24;33.43;100826.38;4984107;28;20072;-77
2022/06/24 09:36:48;;;;;;;9.90;1.92;;;31.80;71.60;;;31.29;33.15;100825.75;4963378;28;20046;-78
2022/06/24 09:39:18;;;;;;;5.85;1.50;;;31.60;71.20;;;31.15;33.76;100815.91;4961326;28;20049;-78
2022/06/24 09:41:53;;;;;;;8.10;1.88;;;31.70;72.70;;;31.30;34.12;100813.84;4948892;28;20061;-79
2022/06/24 09:44:19;;;;;;;4.47;1.63;;;31.80;71.50;;;31.54;33.36;100809.72;4956797;28;20032;-78
2022/06/24 09:46:46;;;;;;;7.40;1.67;;;31.90;69.50;;;31.57;32.72;100809.28;4953458;28;20045;-78
2022/06/24 09:49:17;;;;;;;5.45;1.75;;;32.10;69.30;;;31.80;32.75;100816.22;4951796;28;20029;-77
2022/06/24 09:51:46;;;;;;;2.80;1.38;;;32.20;69.90;;;32.09;32.32;100812.25;4965832;28;20033;-77
2022/06/24 09:54:20;;;;;;;8.23;1.90;;;32.40;68.30;;;32.07;31.37;100819.78;4956786;28;20956;-78
2022/06/24 09:56:50;;;;;;;6.80;1.95;;;32.30;68.80;;;31.73;32.29;100815.38;4969627;28;20061;-78
2022/06/24 10:02:02;;;;;;;6.32;1.95;;;32.30;66.60;;;31.59;31.25;100828.97;4933604;28;20037;-78
2022/06/24 10:04:33;;;;;;;6.20;1.80;;;32.20;67.40;;;31.50;31.71;100819.34;4970015;23;20121;-78
2022/06/24 10:07:01;;;;;;;6.53;1.73;;;32.00;67.10;;;31.46;31.86;100820.78;4975948;28;20108;-77
2022/06/24 10:09:30;;;;;;;3.70;1.48;;;32.10;67.20;;;31.70;31.41;100813.06;4969895;28;20018;-78
2022/06/24 10:11:57;;;;;;;4.25;1.75;;;32.10;65.10;;;31.34;30.38;100816.97;4979380;28;20034;-80
2022/06/24 10:14:28;;;;;;;4.80;1.75;;;32.10;69.10;;;31.60;31.30;100803.44;4975821;28;20049;-77
2022/06/24 10:17:00;;;;;;;8.65;2.00;;;32.10;68.40;;;31.78;31.82;100807.44;4986647;28;20026;-79
2022/06/24 10:19:31;;;;;;;9.73;1.90;;;32.20;69.50;;;31.79;31.97;100800.91;4950704;28;20057;-78
2022/06/24 10:22:00;;;;;;;9.43;1.90;;;32.20;67.70;;;31.68;31.64;100807.84;4912570;28;20029;-80
2022/06/24 10:24:43;;;;;;;6.82;1.50;;;32.20;69.60;;;31.07;31.85;100787.81;4934714;28;20041;-80